createdAt,value
2022-11-09T05:37:52.191Z,32.30
2022-11-09T05:42:19.001Z,38.75
2022-11-09T05:46:49.345Z,39.53
2022-11-09T05:51:07.414Z,36.88
2022-11-09T05:55:27.243Z,33.05
2022-11-09T05:59:47.290Z,41.17
2022-11-09T06:04:26.923Z,38.28
2022-11-09T06:13:19.776Z,43.38
2022-11-09T06:28:03.368Z,54.25
2022-11-09T06:32:19.781Z,51.30
2022-11-09T12:52:16.220Z,8.50
2022-11-09T16:33:03.166Z,6.47
2022-11-09T16:38:49.865Z,9.48
2022-11-09T16:44:10.299Z,7.00
2022-11-09T17:08:57.131Z,16.45
2022-11-09T17:13:28.520Z,21.63
2022-11-09T17:18:57.540Z,15.07
2022-11-09T17:23:35.441Z,19.67
2022-11-09T17:28:51.852Z,21.90
2022-11-09T17:46:15.978Z,25.20
2022-11-09T18:06:49.863Z,15.40
2022-11-09T18:11:16.018Z,10.10
2022-11-09T18:15:38.606Z,12.00
2022-11-09T18:20:05.340Z,11.95
2022-11-09T18:24:30.315Z,13.05
2022-11-09T18:39:34.691Z,10.00
2022-11-09T18:44:02.843Z,11.70
2022-11-09T18:48:25.174Z,11.18
2022-11-09T18:52:48.785Z,9.65
2022-11-09T18:57:17.305Z,10.00
2022-11-09T19:01:41.133Z,14.65
2022-11-09T19:06:07.872Z,10.95
2022-11-09T19:10:29.200Z,13.43
2022-11-09T19:14:53.191Z,13.10
2022-11-09T19:19:19.484Z,14.82
2022-11-09T19:23:41.563Z,18.85
2022-11-09T19:28:07.956Z,16.33
2022-11-09T19:36:57.112Z,9.23
2022-11-09T19:41:18.913Z,11.60
2022-11-09T19:45:42.108Z,13.85
2022-11-09T19:50:05.218Z,11.18
2022-11-09T19:54:27.061Z,15.48
2022-11-09T19:58:56.833Z,12.95
2022-11-09T20:03:18.037Z,13.07
2022-11-09T20:07:39.834Z,13.88
2022-11-09T20:12:20.205Z,10.02
2022-11-09T20:16:44.502Z,10.60
2022-11-09T20:21:12.283Z,12.60
2022-11-09T20:30:40.216Z,13.60
2022-11-09T20:40:01.717Z,11.02
2022-11-09T20:44:26.719Z,10.85
2022-11-09T20:48:55.954Z,10.70
2022-11-09T20:53:19.805Z,7.07
2022-11-09T20:57:45.400Z,9.53
2022-11-09T21:08:32.945Z,8.50
2022-11-09T21:19:35.488Z,9.18
2022-11-09T21:25:00.652Z,7.72
2022-11-09T21:29:51.449Z,7.97
2022-11-09T21:34:31.455Z,11.45
2022-11-09T21:38:57.719Z,13.20
2022-11-09T21:43:19.950Z,10.00
2022-11-09T21:47:44.662Z,8.35
2022-11-09T21:52:08.653Z,12.32
2022-11-09T21:56:36.269Z,8.48
2022-11-09T22:01:06.894Z,17.77
2022-11-09T22:05:39.613Z,16.50
2022-11-09T22:10:20.911Z,15.98
2022-11-09T22:15:05.366Z,11.15
2022-11-09T22:24:45.677Z,7.80
2022-11-09T22:29:33.032Z,13.15
2022-11-09T22:34:04.115Z,10.60
2022-11-09T22:38:28.156Z,10.13
2022-11-09T22:42:58.474Z,13.23
2022-11-09T22:47:20.570Z,13.65
2022-11-09T22:51:44.873Z,13.15
2022-11-09T22:56:06.958Z,15.35
2022-11-09T23:00:28.592Z,13.43
2022-11-09T23:04:50.667Z,9.23
2022-11-09T23:09:14.436Z,8.07
2022-11-09T23:13:37.509Z,7.40
2022-11-09T23:18:20.910Z,9.45
2022-11-09T23:22:42.835Z,7.93
2022-11-09T23:27:05.732Z,12.13
2022-11-09T23:31:53.834Z,11.35
2022-11-09T23:36:16.792Z,9.98
2022-11-09T23:40:39.325Z,9.82
2022-11-09T23:45:01.078Z,8.38
2022-11-09T23:49:22.724Z,15.38
2022-11-09T23:53:45.099Z,9.30
2022-11-09T23:58:08.679Z,16.13
